Peoria, IL

9:24 AM CDT on August 30, 2014 (GMT -0500)
Lincoln | Change Station
CLOSE
Current Station
Airport
Location: Lincoln,
Elevation: 597 ft
Nearby Weather Stations

Elev 597 ft 40.16 °N, 89.34 °W | Updated 9 minutes ago

Scattered Clouds
Scattered Clouds
74 °F
Feels Like 74 °F
N
8
Wind Variable Wind from South
Gusts 17 mph

Today
High -- | Low -- °F
--% Chance of Precip.
Yesterday
High -- | Low -- °F
Precip. -- in
6:23 AM 7:33 PM
Waxing Crescent, 22% visible
Pressure 29.90 in
Visibility 10.0 miles
Clouds Scattered Clouds 6000 ft
Scattered Clouds 7000 ft
Scattered Clouds 10000 ft
Dew Point 70 °F
Humidity 86%
Rainfall 0.00 in
Snow Depth Not available.
UV 3 out of 12
Pollen 4.90 out of 12
Ozone Good
PM2.5 Good
Flu Activity Not available.
METAR KAAA 301415Z AUTO 19007G15KT 10SM SCT060 SCT070 SCT100 24/21 A2990 RMK AO2 T02350210

More Conditions Fewer Conditions

Pressure 29.90 in
Visibility 10.0 miles
Clouds Scattered Clouds 6000 ft
Scattered Clouds 7000 ft
Scattered Clouds 10000 ft
Dew Point 70 °F
Humidity 86%
Rainfall 0.00 in
Snow Depth Not available.
UV 3 out of 12
Pollen 4.90 out of 12
Ozone Good
PM2.5 Good
Flu Activity Not available.
METAR KAAA 301415Z AUTO 19007G15KT 10SM SCT060 SCT070 SCT100 24/21 A2990 RMK AO2 T02350210

More Conditions Fewer Conditions

10-Day Weather Forecast

Almanac

Astronomy

Aug. 30, 2014 Rise Set
Actual Time 6:23 AM CDT 7:33 PM CDT
Civil Twilight 5:55 AM CDT 8:01 PM CDT
Nautical Twilight 5:21 AM CDT 8:35 PM CDT
Astronomical Twilight 4:46 AM CDT 9:10 PM CDT
Moon 11:12 AM CDT 10:06 PM CDT
Length of Visible Light 14h 06m
Length of Day
13h 10m
Tomorrow will be 2m 34s shorter.
Waxing Crescent, 22% of the Moon is Illuminated
Today
Waxing Crescent
Sep 2
First Quarter
Sep 8
Full
Sep 15
Last Quarter
Sep 24
New

Today's Extremes

State Highs State Lows

Community

WunderPhotos

Upload Photos

1,748,519 photos uploaded!

WunderBlogs® & News

By Dr. Jeff Masters
Director of Meteorology, Weather Underground
By Kari Strenfel
Meteorologist, Weather Underground
By Christopher C. Burt
Weather Historian, Weather Underground
August 30, 2014
August 30, 2014
August 30, 2014

Nearby

Air Quality

  Air Quality AQ Index Pollutant
Yesterday Good
OZONE
Yesterday Good
PM2.5
Current Good
OZONE
Current Good
PM2.5
Saturday Good
PM2.5
Sunday Good
PM2.5
Monday Moderate
PM2.5
Tuesday Good
PM2.5

Snow Depth

Station Depth Elevation
No new snow has been reported.

Earthquake Activity

City Distance Mag. Time & Date
No recent earthquake activity has been reported nearby.
Minimum magnitude displayed is 2.5.

Coastal Water Temperatures

Place Temperature
No Stations Reporting

Nearby Weather Stations